This is the latest recevied weather packets stored in our database for station/object KC9DRE. If no packets are shown the sender has not sent any weather packets the latest 10 day(s).
| Time | Temp. | Humidity | Pressure | Rain* | Wind** | Luminosity | Snow |
|---|---|---|---|---|---|---|---|
| 1778276094 | 22.78° C | 38% | 1010 hPa | 0 mm | - | 330 W/m² | - |
| 1778275788 | 22.78° C | 41% | 1010.1 hPa | 0 mm | - | 455 W/m² | - |
| 1778275485 | 22.78° C | 40% | 1010.1 hPa | 0 mm | - | 354 W/m² | - |
| 1778275181 | 23.33° C | 38% | 1010.4 hPa | 0 mm | - | 201 W/m² | - |
| 1778274877 | 22.78° C | 39% | 1010.3 hPa | 0 mm | - | 508 W/m² | - |
| 1778274574 | 22.78° C | 37% | 1010.5 hPa | 0 mm | - | 279 W/m² | - |
| 1778274271 | 22.78° C | 36% | 1010.5 hPa | 0 mm | - | 474 W/m² | - |
| 1778273967 | 22.78° C | 41% | 1010.4 hPa | 0 mm | - | 382 W/m² | - |
| 1778273665 | 23.33° C | 37% | 1010.6 hPa | 0 mm | - | 248 W/m² | - |
| 1778273361 | 23.33° C | 38% | 1010.6 hPa | 0 mm | - | 543 W/m² | - |
| 1778273058 | 23.33° C | 36% | 1010.7 hPa | 0 mm | - | 538 W/m² | - |
| 1778272753 | 23.89° C | 37% | 1010.8 hPa | 0 mm | - | 564 W/m² | - |
| 1778272450 | 23.89° C | 36% | 1010.7 hPa | 0 mm | - | 648 W/m² | - |
| 1778272146 | 23.89° C | 41% | 1010.8 hPa | 0 mm | - | 703 W/m² | - |
| 1778271843 | 23.89° C | 37% | 1010.8 hPa | 0 mm | - | 681 W/m² | - |
| 1778271541 | 23.89° C | 36% | 1011.2 hPa | 0 mm | - | 642 W/m² | - |
| 1778271237 | 23.89° C | 38% | 1011.2 hPa | 0 mm | - | 655 W/m² | - |
| 1778270933 | 24.44° C | 37% | 1011.4 hPa | 0 mm | - | 672 W/m² | - |
| 1778270630 | 24.44° C | 35% | 1011.3 hPa | 0 mm | - | 679 W/m² | - |
| 1778270326 | 23.89° C | 35% | 1011.4 hPa | 0 mm | - | 695 W/m² | - |
| 1778270023 | 23.33° C | 38% | 1011.7 hPa | 0 mm | - | 704 W/m² | - |
| 1778269719 | 23.89° C | 39% | 1011.7 hPa | 0 mm | - | 731 W/m² | - |
| 1778269416 | 23.89° C | 36% | 1012 hPa | 0 mm | - | 344 W/m² | - |
| 1778269113 | 23.89° C | 41% | 1011.9 hPa | 0 mm | - | 751 W/m² | - |
| 1778268810 | 23.89° C | 41% | 1012 hPa | 0 mm | - | 767 W/m² | - |
* Rain latest hour (hover to see other rain measurements)
** Current wind speed in m/s (hover to see current wind gust speed)